METAR UND TAF INFORMATION
EDSB 252020Z VRB02KT 9999 -RA SCT019 BKN027 BKN047 04/03 Q1026

 FLUGHAFENKARTE

 RUNWAY INFORMATION
Runway 03 Runway length 9787 ft Runway width 148 ft
Runway elevation 405 ft Runway displaced threshold 830 ft Runway heading 32
Runway 21 Runway length 9787 ft Runway width 148 ft
Runway elevation 404 ft Runway displaced threshold 830 ft Runway heading 212

 AIRPORT FREQUENCIES
Type AAS Name REIMS INFO Frequency 124.1 MHZ
Type APP Name STRASSBOUR Frequency 119.45 MHZ
Type ATIS Name BADEN ATIS Frequency 121.275 MHZ
Type GND Name BADEN GND Frequency 121.825 MHZ
Type INFO Name LANGEN INF Frequency 128.95 MHZ
Type TWR Name BADEN TWR Frequency 134.1 MHZ

 AIRPORT NEAR NAVIGATION AIDS
Type NDB Name Karlsruhe Baden Baden Frequency 431 KHZ
Type DME Name Karlsruhe Baden Baden Frequency 115800 KHZ